HAZ3622 ZUUU-ZGGG
Flight info
| Callsign | HAZ3622 |
|---|---|
| Flight time | 1h 48m |
| Altitude | 37100 |
| Route | IDBOR9W IDBOR B330 KWE W181 DUDIT A599 GYA GYA8 |
| Aircraft | A20N/M-SDE2E3FGHIRWXY/LB1 |
Departure
| Time | 2026-05-07 03:23 |
|---|---|
| Airport | Chengdu Shuangliu International Airport (ZUUU) |
Arrival
| Time | 2026-05-07 05:12 |
|---|---|
| Airport | Guangzhou Baiyun International Airport (ZGGG) |
| Time | Latitude | Longitude | Altitude | Speed | Heading |
|---|---|---|---|---|---|
| 2026-05-07 02:54 | 30.57085 | 103.94997 | 1689 ft | 0 kts | 202° |
| 2026-05-07 03:08 | 30.57086 | 103.94997 | 1689 ft | 0 kts | 202° |
| 2026-05-07 03:10 | 30.57097 | 103.95002 | 1689 ft | 2 kts | 201° |
| 2026-05-07 03:10 | 30.57111 | 103.95009 | 1689 ft | 2 kts | 202° |
| 2026-05-07 03:10 | 30.57125 | 103.95016 | 1689 ft | 2 kts | 217° |
| 2026-05-07 03:11 | 30.57135 | 103.95029 | 1689 ft | 2 kts | 245° |
| 2026-05-07 03:11 | 30.57138 | 103.95046 | 1689 ft | 2 kts | 273° |
| 2026-05-07 03:11 | 30.57137 | 103.95058 | 1689 ft | 0 kts | 290° |
| 2026-05-07 03:11 | 30.57134 | 103.95065 | 1689 ft | 0 kts | 293° |
| 2026-05-07 03:13 | 30.57135 | 103.95064 | 1689 ft | 0 kts | 293° |
| 2026-05-07 03:13 | 30.57139 | 103.95053 | 1689 ft | 2 kts | 293° |
| 2026-05-07 03:14 | 30.57146 | 103.95033 | 1689 ft | 3 kts | 292° |
| 2026-05-07 03:14 | 30.57153 | 103.95013 | 1689 ft | 3 kts | 291° |
| 2026-05-07 03:14 | 30.57174 | 103.94949 | 1689 ft | 5 kts | 292° |
| 2026-05-07 03:15 | 30.57189 | 103.94904 | 1689 ft | 6 kts | 292° |
| 2026-05-07 03:15 | 30.57207 | 103.94852 | 1689 ft | 7 kts | 291° |
| 2026-05-07 03:15 | 30.57229 | 103.94791 | 1689 ft | 8 kts | 292° |
| 2026-05-07 03:15 | 30.57263 | 103.94732 | 1689 ft | 9 kts | 340° |
| 2026-05-07 03:16 | 30.57328 | 103.94754 | 1689 ft | 10 kts | 26° |
| 2026-05-07 03:16 | 30.57396 | 103.94792 | 1689 ft | 11 kts | 20° |
| 2026-05-07 03:16 | 30.57472 | 103.94824 | 1689 ft | 11 kts | 19° |
| 2026-05-07 03:16 | 30.57532 | 103.94782 | 1689 ft | 10 kts | 337° |
| 2026-05-07 03:17 | 30.57608 | 103.94799 | 1689 ft | 11 kts | 22° |
| 2026-05-07 03:17 | 30.57707 | 103.94846 | 1689 ft | 16 kts | 23° |
| 2026-05-07 03:17 | 30.57828 | 103.94902 | 1689 ft | 21 kts | 21° |
| 2026-05-07 03:17 | 30.57977 | 103.94971 | 1690 ft | 25 kts | 22° |
| 2026-05-07 03:18 | 30.58149 | 103.95052 | 1690 ft | 26 kts | 22° |
| 2026-05-07 03:18 | 30.58319 | 103.95130 | 1690 ft | 25 kts | 21° |
| 2026-05-07 03:18 | 30.58479 | 103.95204 | 1690 ft | 24 kts | 22° |
| 2026-05-07 03:18 | 30.58632 | 103.95276 | 1690 ft | 23 kts | 22° |
| 2026-05-07 03:19 | 30.58797 | 103.95352 | 1690 ft | 26 kts | 23° |
| 2026-05-07 03:19 | 30.58964 | 103.95430 | 1690 ft | 24 kts | 22° |
| 2026-05-07 03:19 | 30.59110 | 103.95499 | 1690 ft | 17 kts | 22° |
| 2026-05-07 03:19 | 30.59220 | 103.95551 | 1690 ft | 13 kts | 22° |
| 2026-05-07 03:20 | 30.59298 | 103.95541 | 1690 ft | 12 kts | 298° |
| 2026-05-07 03:20 | 30.59314 | 103.95497 | 1690 ft | 0 kts | 291° |
| 2026-05-07 03:20 | 30.59314 | 103.95495 | 1690 ft | 0 kts | 291° |
| 2026-05-07 03:21 | 30.59318 | 103.95483 | 1690 ft | 2 kts | 291° |
| 2026-05-07 03:21 | 30.59325 | 103.95463 | 1690 ft | 3 kts | 291° |
| 2026-05-07 03:21 | 30.59335 | 103.95433 | 1690 ft | 4 kts | 287° |
| 2026-05-07 03:21 | 30.59333 | 103.95395 | 1690 ft | 5 kts | 238° |
| 2026-05-07 03:22 | 30.59313 | 103.95380 | 1690 ft | 0 kts | 204° |
| 2026-05-07 03:22 | 30.59303 | 103.95375 | 1690 ft | 7 kts | 203° |
| 2026-05-07 03:23 | 30.59025 | 103.95247 | 1690 ft | 79 kts | 201° |
| 2026-05-07 03:23 | 30.58304 | 103.94910 | 1690 ft | 139 kts | 201° |
| 2026-05-07 03:23 | 30.57258 | 103.94421 | 1823 ft | 173 kts | 202° |
| 2026-05-07 03:23 | 30.56171 | 103.93893 | 2504 ft | 165 kts | 202° |
| 2026-05-07 03:24 | 30.55138 | 103.93369 | 3149 ft | 163 kts | 200° |
| 2026-05-07 03:24 | 30.54061 | 103.92876 | 3662 ft | 170 kts | 198° |
| 2026-05-07 03:24 | 30.52887 | 103.92360 | 4061 ft | 186 kts | 199° |
| 2026-05-07 03:24 | 30.51615 | 103.91793 | 4441 ft | 201 kts | 199° |
| 2026-05-07 03:25 | 30.50236 | 103.91165 | 4745 ft | 219 kts | 199° |
| 2026-05-07 03:25 | 30.48724 | 103.90472 | 5017 ft | 243 kts | 200° |
| 2026-05-07 03:25 | 30.47102 | 103.89722 | 5425 ft | 261 kts | 200° |
| 2026-05-07 03:25 | 30.45324 | 103.88901 | 5886 ft | 279 kts | 200° |
| 2026-05-07 03:26 | 30.43486 | 103.88050 | 6423 ft | 285 kts | 201° |
| 2026-05-07 03:26 | 30.41631 | 103.87189 | 6664 ft | 287 kts | 201° |
| 2026-05-07 03:26 | 30.39781 | 103.86329 | 6725 ft | 288 kts | 201° |
| 2026-05-07 03:26 | 30.37910 | 103.85459 | 6763 ft | 290 kts | 201° |
| 2026-05-07 03:27 | 30.36001 | 103.84573 | 7184 ft | 298 kts | 201° |
| 2026-05-07 03:27 | 30.34073 | 103.83678 | 8120 ft | 297 kts | 201° |
| 2026-05-07 03:27 | 30.32138 | 103.82782 | 8948 ft | 300 kts | 200° |
| 2026-05-07 03:27 | 30.30194 | 103.81881 | 9715 ft | 304 kts | 200° |
| 2026-05-07 03:28 | 30.28214 | 103.80966 | 10484 ft | 309 kts | 200° |
| 2026-05-07 03:28 | 30.26165 | 103.80023 | 10990 ft | 323 kts | 201° |
| 2026-05-07 03:28 | 30.23985 | 103.79161 | 11338 ft | 340 kts | 188° |
| 2026-05-07 03:28 | 30.21576 | 103.79216 | 11641 ft | 353 kts | 164° |
| 2026-05-07 03:29 | 30.19266 | 103.80321 | 11982 ft | 366 kts | 150° |
| 2026-05-07 03:29 | 30.16965 | 103.81718 | 12468 ft | 377 kts | 150° |
| 2026-05-07 03:29 | 30.14597 | 103.83144 | 13191 ft | 380 kts | 151° |
| 2026-05-07 03:29 | 30.12228 | 103.84543 | 13885 ft | 383 kts | 152° |
| 2026-05-07 03:30 | 30.09836 | 103.85939 | 14511 ft | 387 kts | 153° |
| 2026-05-07 03:30 | 30.07432 | 103.87334 | 15111 ft | 391 kts | 154° |
| 2026-05-07 03:30 | 30.04995 | 103.88752 | 15704 ft | 395 kts | 154° |
| 2026-05-07 03:30 | 30.02512 | 103.90202 | 16272 ft | 399 kts | 154° |
| 2026-05-07 03:31 | 30.00031 | 103.91650 | 16806 ft | 403 kts | 155° |
| 2026-05-07 03:31 | 29.97508 | 103.93121 | 17319 ft | 406 kts | 155° |
| 2026-05-07 03:31 | 29.94956 | 103.94607 | 17831 ft | 410 kts | 155° |
| 2026-05-07 03:31 | 29.92403 | 103.96093 | 18284 ft | 413 kts | 156° |
| 2026-05-07 03:32 | 29.89812 | 103.97600 | 18499 ft | 415 kts | 156° |
| 2026-05-07 03:32 | 29.87204 | 103.99113 | 18506 ft | 415 kts | 156° |
| 2026-05-07 03:32 | 29.84627 | 104.00609 | 18508 ft | 415 kts | 156° |
| 2026-05-07 03:32 | 29.82031 | 104.02117 | 18512 ft | 415 kts | 156° |
| 2026-05-07 03:33 | 29.79490 | 104.03725 | 18504 ft | 418 kts | 149° |
| 2026-05-07 03:33 | 29.77238 | 104.05826 | 18507 ft | 422 kts | 138° |
| 2026-05-07 03:33 | 29.75345 | 104.08429 | 18506 ft | 426 kts | 127° |
| 2026-05-07 03:33 | 29.73743 | 104.11315 | 18509 ft | 427 kts | 124° |
| 2026-05-07 03:34 | 29.72195 | 104.14236 | 18510 ft | 427 kts | 123° |
| 2026-05-07 03:34 | 29.70661 | 104.17144 | 18512 ft | 428 kts | 123° |
| 2026-05-07 03:34 | 29.69106 | 104.20069 | 18511 ft | 427 kts | 124° |
| 2026-05-07 03:34 | 29.67536 | 104.23006 | 18512 ft | 427 kts | 124° |
| 2026-05-07 03:35 | 29.65976 | 104.25908 | 18515 ft | 427 kts | 124° |
| 2026-05-07 03:35 | 29.64413 | 104.28808 | 18513 ft | 428 kts | 124° |
| 2026-05-07 03:35 | 29.62832 | 104.31737 | 18514 ft | 428 kts | 124° |
| 2026-05-07 03:35 | 29.61258 | 104.34648 | 18517 ft | 428 kts | 124° |
| 2026-05-07 03:36 | 29.59689 | 104.37547 | 18514 ft | 428 kts | 124° |
| 2026-05-07 03:36 | 29.58105 | 104.40469 | 18517 ft | 428 kts | 124° |
| 2026-05-07 03:36 | 29.56542 | 104.43353 | 18528 ft | 430 kts | 124° |
| 2026-05-07 03:36 | 29.54943 | 104.46297 | 18832 ft | 435 kts | 124° |
| 2026-05-07 03:37 | 29.53324 | 104.49279 | 19391 ft | 436 kts | 124° |
| 2026-05-07 03:37 | 29.51720 | 104.52230 | 19866 ft | 439 kts | 124° |
| 2026-05-07 03:37 | 29.50085 | 104.55237 | 20295 ft | 442 kts | 124° |
| 2026-05-07 03:37 | 29.48466 | 104.58212 | 20711 ft | 446 kts | 124° |
| 2026-05-07 03:38 | 29.46800 | 104.61269 | 21132 ft | 449 kts | 124° |
| 2026-05-07 03:38 | 29.45134 | 104.64326 | 21517 ft | 453 kts | 124° |
| 2026-05-07 03:38 | 29.43464 | 104.67387 | 21907 ft | 456 kts | 125° |
| 2026-05-07 03:38 | 29.41759 | 104.70509 | 22286 ft | 460 kts | 125° |
| 2026-05-07 03:39 | 29.40060 | 104.73621 | 22659 ft | 463 kts | 124° |
| 2026-05-07 03:39 | 29.38347 | 104.76753 | 23036 ft | 466 kts | 125° |
| 2026-05-07 03:39 | 29.36614 | 104.79919 | 23423 ft | 469 kts | 124° |
| 2026-05-07 03:39 | 29.34773 | 104.83024 | 23806 ft | 469 kts | 132° |
| 2026-05-07 03:40 | 29.32454 | 104.85671 | 24184 ft | 465 kts | 145° |
| 2026-05-07 03:40 | 29.29772 | 104.87676 | 24560 ft | 462 kts | 157° |
| 2026-05-07 03:40 | 29.26824 | 104.89227 | 24935 ft | 462 kts | 160° |
| 2026-05-07 03:40 | 29.23865 | 104.90673 | 25285 ft | 464 kts | 161° |
| 2026-05-07 03:41 | 29.20868 | 104.92133 | 25622 ft | 467 kts | 160° |
| 2026-05-07 03:41 | 29.17876 | 104.93612 | 25955 ft | 470 kts | 160° |
| 2026-05-07 03:41 | 29.14886 | 104.95108 | 26289 ft | 472 kts | 160° |
| 2026-05-07 03:41 | 29.11866 | 104.96629 | 26610 ft | 475 kts | 160° |
| 2026-05-07 03:42 | 29.08799 | 104.98180 | 26918 ft | 477 kts | 160° |
| 2026-05-07 03:42 | 29.05768 | 104.99714 | 27207 ft | 479 kts | 160° |
| 2026-05-07 03:42 | 29.02697 | 105.01265 | 27483 ft | 482 kts | 160° |
| 2026-05-07 03:42 | 28.99627 | 105.02814 | 27740 ft | 484 kts | 160° |
| 2026-05-07 03:43 | 28.96540 | 105.04370 | 28038 ft | 485 kts | 160° |
| 2026-05-07 03:43 | 28.93464 | 105.05920 | 28427 ft | 484 kts | 160° |
| 2026-05-07 03:43 | 28.90362 | 105.07476 | 28818 ft | 483 kts | 160° |
| 2026-05-07 03:43 | 28.87277 | 105.09019 | 29169 ft | 483 kts | 160° |
| 2026-05-07 03:44 | 28.84138 | 105.10589 | 29485 ft | 484 kts | 160° |
| 2026-05-07 03:44 | 28.81083 | 105.12114 | 29779 ft | 485 kts | 161° |
| 2026-05-07 03:44 | 28.77951 | 105.13723 | 30089 ft | 487 kts | 159° |
| 2026-05-07 03:44 | 28.74927 | 105.15480 | 30410 ft | 489 kts | 156° |
| 2026-05-07 03:45 | 28.71914 | 105.17302 | 30724 ft | 489 kts | 156° |
| 2026-05-07 03:45 | 28.68906 | 105.19129 | 31053 ft | 490 kts | 157° |
| 2026-05-07 03:45 | 28.65907 | 105.20950 | 31363 ft | 490 kts | 157° |
| 2026-05-07 03:45 | 28.62871 | 105.22789 | 31669 ft | 490 kts | 157° |
| 2026-05-07 03:46 | 28.59854 | 105.24616 | 31998 ft | 490 kts | 157° |
| 2026-05-07 03:46 | 28.56856 | 105.26429 | 32299 ft | 490 kts | 158° |
| 2026-05-07 03:46 | 28.53823 | 105.28260 | 32573 ft | 490 kts | 158° |
| 2026-05-07 03:46 | 28.50786 | 105.30094 | 32872 ft | 491 kts | 158° |
| 2026-05-07 03:47 | 28.47787 | 105.31902 | 33183 ft | 490 kts | 158° |
| 2026-05-07 03:47 | 28.44740 | 105.33737 | 33510 ft | 490 kts | 158° |
| 2026-05-07 03:47 | 28.41766 | 105.35529 | 33861 ft | 488 kts | 158° |
| 2026-05-07 03:47 | 28.38754 | 105.37341 | 34215 ft | 486 kts | 158° |
| 2026-05-07 03:48 | 28.35756 | 105.39145 | 34551 ft | 485 kts | 158° |
| 2026-05-07 03:48 | 28.32741 | 105.40956 | 34878 ft | 483 kts | 158° |
| 2026-05-07 03:48 | 28.29798 | 105.42723 | 35155 ft | 482 kts | 158° |
| 2026-05-07 03:48 | 28.26769 | 105.44540 | 35429 ft | 482 kts | 158° |
| 2026-05-07 03:49 | 28.23817 | 105.46312 | 35671 ft | 481 kts | 158° |
| 2026-05-07 03:49 | 28.20829 | 105.48102 | 35859 ft | 482 kts | 158° |
| 2026-05-07 03:49 | 28.17846 | 105.49889 | 36034 ft | 483 kts | 158° |
| 2026-05-07 03:49 | 28.14863 | 105.51674 | 36215 ft | 483 kts | 158° |
| 2026-05-07 03:50 | 28.11864 | 105.53400 | 36360 ft | 482 kts | 161° |
| 2026-05-07 03:50 | 28.08749 | 105.54957 | 36496 ft | 480 kts | 164° |
| 2026-05-07 03:50 | 28.05631 | 105.56270 | 36644 ft | 477 kts | 168° |
| 2026-05-07 03:50 | 28.02450 | 105.57372 | 36818 ft | 474 kts | 171° |
| 2026-05-07 03:51 | 27.99269 | 105.58258 | 36947 ft | 471 kts | 174° |
| 2026-05-07 03:51 | 27.92773 | 105.59473 | 37153 ft | 468 kts | 179° |
| 2026-05-07 03:52 | 27.86244 | 105.60566 | 37251 ft | 474 kts | 174° |
| 2026-05-07 03:52 | 27.79799 | 105.62517 | 37249 ft | 480 kts | 167° |
| 2026-05-07 03:53 | 27.73506 | 105.65359 | 37251 ft | 486 kts | 161° |
| 2026-05-07 03:53 | 27.67412 | 105.68926 | 37257 ft | 487 kts | 160° |
| 2026-05-07 03:54 | 27.61279 | 105.72286 | 37269 ft | 485 kts | 160° |
| 2026-05-07 03:54 | 27.55175 | 105.75588 | 37284 ft | 485 kts | 160° |
| 2026-05-07 03:55 | 27.49047 | 105.78896 | 37295 ft | 485 kts | 160° |
| 2026-05-07 03:55 | 27.42922 | 105.82199 | 37300 ft | 485 kts | 160° |
| 2026-05-07 03:56 | 27.36819 | 105.85486 | 37295 ft | 485 kts | 160° |
| 2026-05-07 03:56 | 27.30689 | 105.88783 | 37292 ft | 485 kts | 160° |
| 2026-05-07 03:57 | 27.24599 | 105.92057 | 37298 ft | 484 kts | 160° |
| 2026-05-07 03:57 | 27.18477 | 105.95342 | 37302 ft | 484 kts | 160° |
| 2026-05-07 03:58 | 27.12387 | 105.98628 | 37310 ft | 485 kts | 158° |
| 2026-05-07 03:58 | 27.06564 | 106.02641 | 37297 ft | 492 kts | 148° |
| 2026-05-07 03:59 | 27.01335 | 106.07721 | 37299 ft | 497 kts | 138° |
| 2026-05-07 03:59 | 26.96850 | 106.13722 | 37295 ft | 501 kts | 130° |
| 2026-05-07 04:00 | 26.92657 | 106.20013 | 37289 ft | 501 kts | 130° |
| 2026-05-07 04:00 | 26.88451 | 106.26306 | 37289 ft | 501 kts | 130° |
| 2026-05-07 04:01 | 26.84237 | 106.32560 | 37286 ft | 502 kts | 130° |
| 2026-05-07 04:01 | 26.80033 | 106.38775 | 37285 ft | 502 kts | 130° |
| 2026-05-07 04:02 | 26.75814 | 106.45001 | 37279 ft | 502 kts | 130° |
| 2026-05-07 04:02 | 26.71577 | 106.51244 | 37274 ft | 502 kts | 130° |
| 2026-05-07 04:03 | 26.67332 | 106.57491 | 37268 ft | 501 kts | 130° |
| 2026-05-07 04:03 | 26.63106 | 106.63708 | 37266 ft | 501 kts | 130° |
| 2026-05-07 04:04 | 26.58857 | 106.69944 | 37261 ft | 500 kts | 130° |
| 2026-05-07 04:04 | 26.54612 | 106.76163 | 37261 ft | 501 kts | 131° |
| 2026-05-07 04:05 | 26.50021 | 106.82071 | 37261 ft | 497 kts | 138° |
| 2026-05-07 04:05 | 26.45053 | 106.87543 | 37259 ft | 496 kts | 139° |
| 2026-05-07 04:06 | 26.40101 | 106.92955 | 37254 ft | 496 kts | 139° |
| 2026-05-07 04:06 | 26.35131 | 106.98405 | 37252 ft | 495 kts | 139° |
| 2026-05-07 04:07 | 26.30187 | 107.03824 | 37256 ft | 496 kts | 139° |
| 2026-05-07 04:07 | 26.25272 | 107.09217 | 37254 ft | 496 kts | 139° |
| 2026-05-07 04:08 | 26.20357 | 107.14619 | 37240 ft | 495 kts | 139° |
| 2026-05-07 04:08 | 26.15423 | 107.20031 | 37228 ft | 495 kts | 139° |
| 2026-05-07 04:09 | 26.10522 | 107.25402 | 37211 ft | 494 kts | 139° |
| 2026-05-07 04:09 | 26.05582 | 107.30808 | 37205 ft | 494 kts | 139° |
| 2026-05-07 04:10 | 26.00676 | 107.36170 | 37197 ft | 495 kts | 139° |
| 2026-05-07 04:10 | 25.95722 | 107.41579 | 37189 ft | 496 kts | 139° |
| 2026-05-07 04:11 | 25.90801 | 107.46943 | 37180 ft | 496 kts | 139° |
| 2026-05-07 04:11 | 25.85826 | 107.52363 | 37177 ft | 496 kts | 139° |
| 2026-05-07 04:12 | 25.80889 | 107.57734 | 37185 ft | 495 kts | 139° |
| 2026-05-07 04:12 | 25.75926 | 107.63126 | 37179 ft | 495 kts | 139° |
| 2026-05-07 04:13 | 25.70961 | 107.68512 | 37173 ft | 496 kts | 139° |
| 2026-05-07 04:13 | 25.66039 | 107.73898 | 37159 ft | 495 kts | 139° |
| 2026-05-07 04:14 | 25.61148 | 107.79258 | 37151 ft | 495 kts | 139° |
| 2026-05-07 04:14 | 25.56241 | 107.84625 | 37152 ft | 495 kts | 139° |
| 2026-05-07 04:15 | 25.51276 | 107.89922 | 37136 ft | 493 kts | 143° |
| 2026-05-07 04:15 | 25.45601 | 107.94161 | 37130 ft | 486 kts | 157° |
| 2026-05-07 04:16 | 25.39301 | 107.96827 | 37127 ft | 478 kts | 171° |
| 2026-05-07 04:16 | 25.32774 | 107.97981 | 37133 ft | 471 kts | 179° |
| 2026-05-07 04:17 | 25.26183 | 107.98744 | 37129 ft | 471 kts | 179° |
| 2026-05-07 04:17 | 25.19618 | 107.99516 | 37125 ft | 472 kts | 179° |
| 2026-05-07 04:18 | 25.13050 | 108.00308 | 37111 ft | 473 kts | 179° |
| 2026-05-07 04:18 | 25.06438 | 108.01112 | 37100 ft | 473 kts | 179° |
| 2026-05-07 04:19 | 24.99845 | 108.01914 | 37087 ft | 474 kts | 179° |
| 2026-05-07 04:19 | 24.93257 | 108.02715 | 37084 ft | 473 kts | 179° |
| 2026-05-07 04:20 | 24.86650 | 108.03517 | 37081 ft | 473 kts | 178° |
| 2026-05-07 04:20 | 24.80057 | 108.04318 | 37080 ft | 473 kts | 178° |
| 2026-05-07 04:21 | 24.70156 | 108.05517 | 37081 ft | 473 kts | 178° |
| 2026-05-07 04:21 | 24.63579 | 108.06310 | 37071 ft | 473 kts | 178° |
| 2026-05-07 04:22 | 24.57003 | 108.07104 | 37076 ft | 473 kts | 178° |
| 2026-05-07 04:22 | 24.50412 | 108.07901 | 37070 ft | 472 kts | 178° |
| 2026-05-07 04:23 | 24.43850 | 108.08704 | 37048 ft | 471 kts | 178° |
| 2026-05-07 04:23 | 24.37248 | 108.09507 | 37042 ft | 472 kts | 178° |
| 2026-05-07 04:24 | 24.30726 | 108.10300 | 37038 ft | 472 kts | 178° |
| 2026-05-07 04:24 | 24.24146 | 108.11098 | 37035 ft | 472 kts | 178° |
| 2026-05-07 04:25 | 24.17554 | 108.11895 | 37031 ft | 472 kts | 178° |
| 2026-05-07 04:25 | 24.10980 | 108.12691 | 37029 ft | 472 kts | 178° |
| 2026-05-07 04:26 | 24.04458 | 108.13478 | 37030 ft | 471 kts | 178° |
| 2026-05-07 04:26 | 23.97908 | 108.14267 | 37028 ft | 472 kts | 178° |
| 2026-05-07 04:27 | 23.91373 | 108.15350 | 37011 ft | 479 kts | 165° |
| 2026-05-07 04:27 | 23.88274 | 108.16867 | 37017 ft | 485 kts | 151° |
| 2026-05-07 04:27 | 23.85586 | 108.19123 | 37018 ft | 491 kts | 137° |
| 2026-05-07 04:28 | 23.83427 | 108.22028 | 37016 ft | 495 kts | 122° |
| 2026-05-07 04:28 | 23.81938 | 108.25423 | 37016 ft | 497 kts | 108° |
| 2026-05-07 04:28 | 23.81213 | 108.29118 | 37014 ft | 497 kts | 95° |
| 2026-05-07 04:28 | 23.80989 | 108.32886 | 37017 ft | 496 kts | 92° |
| 2026-05-07 04:29 | 23.80669 | 108.40472 | 37016 ft | 496 kts | 92° |
| 2026-05-07 04:29 | 23.80293 | 108.48022 | 37017 ft | 496 kts | 92° |
| 2026-05-07 04:30 | 23.79876 | 108.55531 | 37022 ft | 495 kts | 93° |
| 2026-05-07 04:30 | 23.79444 | 108.63011 | 37024 ft | 495 kts | 93° |
| 2026-05-07 04:31 | 23.79001 | 108.70602 | 37024 ft | 495 kts | 93° |
| 2026-05-07 04:31 | 23.78560 | 108.78055 | 37025 ft | 494 kts | 93° |
| 2026-05-07 04:32 | 23.78113 | 108.85593 | 37018 ft | 494 kts | 93° |
| 2026-05-07 04:32 | 23.77664 | 108.93065 | 37009 ft | 495 kts | 93° |
| 2026-05-07 04:33 | 23.77206 | 109.00608 | 36999 ft | 495 kts | 93° |
| 2026-05-07 04:33 | 23.76748 | 109.08077 | 36991 ft | 494 kts | 93° |
| 2026-05-07 04:34 | 23.76068 | 109.15584 | 36983 ft | 494 kts | 98° |
| 2026-05-07 04:34 | 23.74713 | 109.22962 | 36978 ft | 495 kts | 102° |
| 2026-05-07 04:35 | 23.73210 | 109.30312 | 36976 ft | 495 kts | 102° |
| 2026-05-07 04:35 | 23.71723 | 109.37628 | 36973 ft | 494 kts | 102° |
| 2026-05-07 04:36 | 23.70240 | 109.44943 | 36977 ft | 495 kts | 102° |
| 2026-05-07 04:36 | 23.68749 | 109.52296 | 36977 ft | 494 kts | 102° |
| 2026-05-07 04:37 | 23.67252 | 109.59653 | 36983 ft | 495 kts | 102° |
| 2026-05-07 04:37 | 23.65751 | 109.66985 | 36989 ft | 495 kts | 102° |
| 2026-05-07 04:38 | 23.64231 | 109.74353 | 36995 ft | 495 kts | 102° |
| 2026-05-07 04:38 | 23.62721 | 109.81660 | 37007 ft | 495 kts | 102° |
| 2026-05-07 04:39 | 23.61205 | 109.88975 | 37011 ft | 495 kts | 102° |
| 2026-05-07 04:39 | 23.59676 | 109.96334 | 37017 ft | 495 kts | 102° |
| 2026-05-07 04:40 | 23.58141 | 110.03698 | 37025 ft | 496 kts | 102° |
| 2026-05-07 04:40 | 23.56613 | 110.11014 | 37022 ft | 495 kts | 102° |
| 2026-05-07 04:41 | 23.55081 | 110.18336 | 37012 ft | 495 kts | 102° |
| 2026-05-07 04:41 | 23.53543 | 110.25664 | 36995 ft | 495 kts | 102° |
| 2026-05-07 04:42 | 23.52011 | 110.32945 | 36985 ft | 495 kts | 102° |
| 2026-05-07 04:42 | 23.50484 | 110.40279 | 36980 ft | 495 kts | 101° |
| 2026-05-07 04:43 | 23.48999 | 110.47629 | 36977 ft | 496 kts | 101° |
| 2026-05-07 04:43 | 23.47505 | 110.54994 | 36978 ft | 495 kts | 101° |
| 2026-05-07 04:44 | 23.46005 | 110.62339 | 36981 ft | 496 kts | 101° |
| 2026-05-07 04:44 | 23.44500 | 110.69688 | 36982 ft | 496 kts | 102° |
| 2026-05-07 04:45 | 23.42975 | 110.77036 | 36984 ft | 496 kts | 102° |
| 2026-05-07 04:45 | 23.41435 | 110.84328 | 36986 ft | 495 kts | 102° |
| 2026-05-07 04:46 | 23.39879 | 110.91675 | 36989 ft | 495 kts | 102° |
| 2026-05-07 04:46 | 23.38330 | 110.98989 | 36993 ft | 495 kts | 102° |
| 2026-05-07 04:47 | 23.36778 | 111.06293 | 37000 ft | 495 kts | 102° |
| 2026-05-07 04:47 | 23.35217 | 111.13618 | 36964 ft | 496 kts | 102° |
| 2026-05-07 04:48 | 23.34449 | 111.17267 | 36672 ft | 494 kts | 101° |
| 2026-05-07 04:48 | 23.33700 | 111.20935 | 36333 ft | 492 kts | 101° |
| 2026-05-07 04:48 | 23.32967 | 111.24541 | 35937 ft | 488 kts | 101° |
| 2026-05-07 04:48 | 23.32231 | 111.28162 | 35509 ft | 486 kts | 101° |
| 2026-05-07 04:49 | 23.31496 | 111.31771 | 35055 ft | 486 kts | 101° |
| 2026-05-07 04:49 | 23.30754 | 111.35397 | 34565 ft | 487 kts | 101° |
| 2026-05-07 04:49 | 23.30017 | 111.38987 | 34027 ft | 488 kts | 101° |
| 2026-05-07 04:49 | 23.29275 | 111.42595 | 33472 ft | 490 kts | 101° |
| 2026-05-07 04:50 | 23.28525 | 111.46239 | 32898 ft | 491 kts | 101° |
| 2026-05-07 04:50 | 23.27774 | 111.49880 | 32340 ft | 493 kts | 101° |
| 2026-05-07 04:50 | 23.27017 | 111.53545 | 31771 ft | 494 kts | 101° |
| 2026-05-07 04:50 | 23.26253 | 111.57188 | 31168 ft | 496 kts | 101° |
| 2026-05-07 04:51 | 23.25471 | 111.60887 | 30536 ft | 497 kts | 102° |
| 2026-05-07 04:51 | 23.24696 | 111.64539 | 29883 ft | 498 kts | 102° |
| 2026-05-07 04:51 | 23.23899 | 111.68294 | 29147 ft | 500 kts | 102° |
| 2026-05-07 04:51 | 23.23113 | 111.72000 | 28311 ft | 501 kts | 102° |
| 2026-05-07 04:52 | 23.22333 | 111.75674 | 27418 ft | 503 kts | 102° |
| 2026-05-07 04:52 | 23.21541 | 111.79402 | 26732 ft | 499 kts | 103° |
| 2026-05-07 04:52 | 23.20768 | 111.83028 | 26179 ft | 493 kts | 103° |
| 2026-05-07 04:52 | 23.20008 | 111.86661 | 25620 ft | 489 kts | 102° |
| 2026-05-07 04:53 | 23.19258 | 111.90283 | 25056 ft | 485 kts | 102° |
| 2026-05-07 04:53 | 23.18512 | 111.93883 | 24493 ft | 481 kts | 103° |
| 2026-05-07 04:53 | 23.17776 | 111.97434 | 23932 ft | 477 kts | 103° |
| 2026-05-07 04:53 | 23.17050 | 112.00923 | 23381 ft | 473 kts | 103° |
| 2026-05-07 04:54 | 23.16327 | 112.04394 | 22830 ft | 469 kts | 103° |
| 2026-05-07 04:54 | 23.15608 | 112.07843 | 22275 ft | 464 kts | 103° |
| 2026-05-07 04:54 | 23.14886 | 112.11288 | 21727 ft | 461 kts | 103° |
| 2026-05-07 04:54 | 23.14175 | 112.14674 | 21182 ft | 457 kts | 103° |
| 2026-05-07 04:55 | 23.13460 | 112.18080 | 20629 ft | 452 kts | 103° |
| 2026-05-07 04:55 | 23.12770 | 112.21363 | 20095 ft | 448 kts | 103° |
| 2026-05-07 04:55 | 23.12077 | 112.24663 | 19551 ft | 443 kts | 103° |
| 2026-05-07 04:55 | 23.11395 | 112.27902 | 19010 ft | 439 kts | 103° |
| 2026-05-07 04:56 | 23.10713 | 112.31139 | 18464 ft | 435 kts | 103° |
| 2026-05-07 04:56 | 23.10037 | 112.34349 | 17910 ft | 430 kts | 103° |
| 2026-05-07 04:56 | 23.09372 | 112.37498 | 17373 ft | 426 kts | 103° |
| 2026-05-07 04:56 | 23.08709 | 112.40637 | 16825 ft | 422 kts | 103° |
| 2026-05-07 04:57 | 23.08045 | 112.43775 | 16269 ft | 419 kts | 103° |
| 2026-05-07 04:57 | 23.07446 | 112.46841 | 15725 ft | 416 kts | 100° |
| 2026-05-07 04:57 | 23.07080 | 112.49985 | 15169 ft | 412 kts | 95° |
| 2026-05-07 04:57 | 23.06975 | 112.53080 | 14628 ft | 409 kts | 90° |
| 2026-05-07 04:58 | 23.06974 | 112.56168 | 14081 ft | 405 kts | 90° |
| 2026-05-07 04:58 | 23.06988 | 112.59235 | 13535 ft | 402 kts | 90° |
| 2026-05-07 04:58 | 23.06999 | 112.62262 | 12991 ft | 398 kts | 90° |
| 2026-05-07 04:58 | 23.07001 | 112.65293 | 12440 ft | 395 kts | 90° |
| 2026-05-07 04:59 | 23.06999 | 112.68288 | 11883 ft | 391 kts | 90° |
| 2026-05-07 04:59 | 23.06994 | 112.71219 | 11344 ft | 388 kts | 90° |
| 2026-05-07 04:59 | 23.06985 | 112.74143 | 10792 ft | 385 kts | 91° |
| 2026-05-07 04:59 | 23.06964 | 112.77032 | 10248 ft | 381 kts | 91° |
| 2026-05-07 05:00 | 23.06940 | 112.79919 | 9701 ft | 378 kts | 91° |
| 2026-05-07 05:00 | 23.06915 | 112.82782 | 9150 ft | 375 kts | 91° |
| 2026-05-07 05:00 | 23.06891 | 112.85585 | 8613 ft | 372 kts | 91° |
| 2026-05-07 05:00 | 23.06866 | 112.88429 | 8049 ft | 369 kts | 91° |
| 2026-05-07 05:01 | 23.06842 | 112.91190 | 7506 ft | 365 kts | 91° |
| 2026-05-07 05:01 | 23.06818 | 112.93952 | 6951 ft | 362 kts | 91° |
| 2026-05-07 05:01 | 23.06793 | 112.96679 | 6405 ft | 359 kts | 91° |
| 2026-05-07 05:01 | 23.06766 | 112.99410 | 6021 ft | 349 kts | 91° |
| 2026-05-07 05:02 | 23.06742 | 113.02022 | 5832 ft | 336 kts | 91° |
| 2026-05-07 05:02 | 23.06718 | 113.04501 | 5712 ft | 320 kts | 91° |
| 2026-05-07 05:02 | 23.06694 | 113.06876 | 5586 ft | 306 kts | 91° |
| 2026-05-07 05:02 | 23.06640 | 113.09140 | 5461 ft | 292 kts | 96° |
| 2026-05-07 05:03 | 23.06303 | 113.11288 | 5335 ft | 279 kts | 104° |
| 2026-05-07 05:03 | 23.05851 | 113.13312 | 5210 ft | 267 kts | 105° |
| 2026-05-07 05:03 | 23.05395 | 113.15268 | 5085 ft | 256 kts | 105° |
| 2026-05-07 05:03 | 23.04973 | 113.17099 | 4959 ft | 246 kts | 105° |
| 2026-05-07 05:04 | 23.04769 | 113.18936 | 4855 ft | 236 kts | 80° |
| 2026-05-07 05:04 | 23.05435 | 113.20507 | 4861 ft | 221 kts | 57° |
| 2026-05-07 05:04 | 23.06391 | 113.21744 | 4935 ft | 204 kts | 41° |
| 2026-05-07 05:04 | 23.07537 | 113.22578 | 4877 ft | 186 kts | 26° |
| 2026-05-07 05:05 | 23.08703 | 113.23093 | 4838 ft | 169 kts | 17° |
| 2026-05-07 05:05 | 23.09829 | 113.23442 | 4830 ft | 167 kts | 14° |
| 2026-05-07 05:05 | 23.10999 | 113.23760 | 4829 ft | 168 kts | 13° |
| 2026-05-07 05:05 | 23.12152 | 113.24067 | 4715 ft | 168 kts | 13° |
| 2026-05-07 05:06 | 23.13308 | 113.24374 | 4497 ft | 167 kts | 13° |
| 2026-05-07 05:06 | 23.14451 | 113.24681 | 4284 ft | 167 kts | 13° |
| 2026-05-07 05:06 | 23.15596 | 113.24990 | 4100 ft | 166 kts | 14° |
| 2026-05-07 05:06 | 23.16752 | 113.25303 | 3881 ft | 165 kts | 14° |
| 2026-05-07 05:07 | 23.17845 | 113.25598 | 3663 ft | 154 kts | 15° |
| 2026-05-07 05:07 | 23.18882 | 113.25880 | 3457 ft | 150 kts | 14° |
| 2026-05-07 05:07 | 23.19911 | 113.26160 | 3254 ft | 149 kts | 14° |
| 2026-05-07 05:07 | 23.20938 | 113.26437 | 3062 ft | 149 kts | 15° |
| 2026-05-07 05:08 | 23.21950 | 113.26711 | 2877 ft | 149 kts | 15° |
| 2026-05-07 05:08 | 23.22957 | 113.26984 | 2692 ft | 148 kts | 15° |
| 2026-05-07 05:08 | 23.23963 | 113.27257 | 2508 ft | 148 kts | 15° |
| 2026-05-07 05:08 | 23.24972 | 113.27530 | 2320 ft | 147 kts | 15° |
| 2026-05-07 05:09 | 23.25985 | 113.27804 | 2134 ft | 147 kts | 15° |
| 2026-05-07 05:09 | 23.26986 | 113.28075 | 1948 ft | 146 kts | 15° |
| 2026-05-07 05:09 | 23.27978 | 113.28343 | 1763 ft | 145 kts | 15° |
| 2026-05-07 05:09 | 23.28966 | 113.28610 | 1577 ft | 144 kts | 15° |
| 2026-05-07 05:10 | 23.29950 | 113.28876 | 1394 ft | 144 kts | 15° |
| 2026-05-07 05:10 | 23.30928 | 113.29140 | 1205 ft | 143 kts | 15° |
| 2026-05-07 05:10 | 23.31915 | 113.29408 | 1023 ft | 143 kts | 15° |
| 2026-05-07 05:10 | 23.32895 | 113.29672 | 833 ft | 143 kts | 14° |
| 2026-05-07 05:11 | 23.33865 | 113.29924 | 637 ft | 142 kts | 14° |
| 2026-05-07 05:11 | 23.34824 | 113.30184 | 505 ft | 141 kts | 15° |
| 2026-05-07 05:11 | 23.35788 | 113.30464 | 303 ft | 140 kts | 14° |
| 2026-05-07 05:11 | 23.36740 | 113.30713 | 132 ft | 140 kts | 14° |
| 2026-05-07 05:12 | 23.37674 | 113.30972 | 55 ft | 128 kts | 12° |
| 2026-05-07 05:12 | 23.38378 | 113.31155 | 55 ft | 78 kts | 14° |
| 2026-05-07 05:12 | 23.38738 | 113.31252 | 55 ft | 27 kts | 14° |
| 2026-05-07 05:12 | 23.38908 | 113.31291 | 55 ft | 23 kts | 3° |
| 2026-05-07 05:13 | 23.39071 | 113.31282 | 55 ft | 22 kts | 349° |
| 2026-05-07 05:13 | 23.39223 | 113.31239 | 55 ft | 21 kts | 342° |
| 2026-05-07 05:13 | 23.39365 | 113.31214 | 55 ft | 16 kts | 357° |
| 2026-05-07 05:13 | 23.39385 | 113.31143 | 55 ft | 12 kts | 228° |
| 2026-05-07 05:14 | 23.39325 | 113.31074 | 55 ft | 13 kts | 224° |
| 2026-05-07 05:14 | 23.39248 | 113.31011 | 55 ft | 14 kts | 212° |
| 2026-05-07 05:14 | 23.39140 | 113.30958 | 55 ft | 19 kts | 200° |
| 2026-05-07 05:14 | 23.39014 | 113.30892 | 55 ft | 19 kts | 215° |
| 2026-05-07 05:15 | 23.38912 | 113.30796 | 55 ft | 19 kts | 222° |
| 2026-05-07 05:15 | 23.38819 | 113.30693 | 55 ft | 18 kts | 249° |
| 2026-05-07 05:15 | 23.38842 | 113.30554 | 55 ft | 18 kts | 284° |
| 2026-05-07 05:15 | 23.38869 | 113.30435 | 55 ft | 11 kts | 285° |
| 2026-05-07 05:16 | 23.38903 | 113.30353 | 55 ft | 12 kts | 297° |
| 2026-05-07 05:16 | 23.38911 | 113.30283 | 55 ft | 6 kts | 220° |
| 2026-05-07 05:16 | 23.38882 | 113.30265 | 55 ft | 3 kts | 210° |
| 2026-05-07 05:16 | 23.38863 | 113.30254 | 55 ft | 2 kts | 207° |
| 2026-05-07 05:17 | 23.38860 | 113.30253 | 55 ft | 0 kts | 207° |